createdAt,value
2022-10-22T00:00:33.357Z,344.10
2022-10-22T00:01:33.238Z,285.20
2022-10-22T00:02:33.290Z,336.10
2022-10-22T00:03:33.225Z,181.90
2022-10-22T00:04:35.410Z,314.60
2022-10-22T00:05:33.227Z,165.90
2022-10-22T00:06:33.206Z,333.60
2022-10-22T00:07:33.194Z,250.10
2022-10-22T00:08:33.272Z,338.10
2022-10-22T00:09:33.170Z,337.20
2022-10-22T00:10:33.200Z,153.00
2022-10-22T00:11:33.144Z,329.00
2022-10-22T00:12:33.126Z,217.40
2022-10-22T00:13:33.098Z,334.90
2022-10-22T00:14:33.087Z,176.70
2022-10-22T00:15:33.122Z,318.70
2022-10-22T00:16:33.082Z,124.60
2022-10-22T00:17:33.068Z,317.50
2022-10-22T00:18:33.073Z,118.10
2022-10-22T00:19:33.041Z,249.40
2022-10-22T00:20:33.077Z,334.40
2022-10-22T00:21:33.024Z,326.40
2022-10-22T00:22:33.011Z,172.70
2022-10-22T00:23:33.002Z,255.40
2022-10-22T00:24:32.992Z,335.00
2022-10-22T00:25:33.020Z,285.00
2022-10-22T00:26:32.950Z,267.40
2022-10-22T00:27:32.944Z,334.50
2022-10-22T00:28:32.927Z,228.00
2022-10-22T00:29:32.927Z,176.90
2022-10-22T00:30:32.968Z,265.00
2022-10-22T00:31:32.898Z,340.30
2022-10-22T00:32:32.889Z,292.70
2022-10-22T00:33:32.890Z,157.30
2022-10-22T00:34:32.870Z,331.00
2022-10-22T00:35:32.899Z,138.70
2022-10-22T00:36:32.853Z,330.90
2022-10-22T00:37:32.828Z,254.80
2022-10-22T00:38:32.830Z,225.00
2022-10-22T00:39:32.802Z,332.40
2022-10-22T00:40:32.836Z,188.50
2022-10-22T00:41:32.787Z,325.50
2022-10-22T00:42:32.755Z,312.70
2022-10-22T00:43:32.761Z,263.20
2022-10-22T00:44:32.741Z,322.00
2022-10-22T00:45:32.790Z,312.90
2022-10-22T00:46:32.754Z,147.40
2022-10-22T00:47:32.730Z,157.90
2022-10-22T00:48:32.709Z,311.80
2022-10-22T00:49:32.684Z,310.60
2022-10-22T00:50:32.722Z,174.90
2022-10-22T00:51:32.666Z,300.20
2022-10-22T00:52:32.673Z,176.80
2022-10-22T00:53:32.636Z,300.90
2022-10-22T00:54:32.626Z,265.00
2022-10-22T00:55:32.660Z,255.70
2022-10-22T00:56:32.606Z,282.00
2022-10-22T00:57:32.611Z,294.30
2022-10-22T00:58:32.589Z,86.10
2022-10-22T00:59:32.585Z,286.20
2022-10-22T01:00:32.676Z,307.20
2022-10-22T01:01:32.540Z,244.80
2022-10-22T01:02:32.556Z,173.80
2022-10-22T01:03:32.515Z,319.90
2022-10-22T01:04:32.529Z,297.30
2022-10-22T01:05:32.556Z,142.30
2022-10-22T01:06:32.487Z,293.60
2022-10-22T01:07:32.473Z,282.80
2022-10-22T01:08:32.493Z,175.10
2022-10-22T01:09:32.465Z,303.80
2022-10-22T01:10:32.501Z,324.30
2022-10-22T01:11:32.444Z,241.90
2022-10-22T01:12:32.427Z,116.00
2022-10-22T01:13:32.398Z,286.20
2022-10-22T01:14:32.390Z,341.80
2022-10-22T01:15:32.425Z,276.80
2022-10-22T01:16:32.384Z,287.10
2022-10-22T01:17:32.362Z,141.60
2022-10-22T01:18:32.369Z,293.60
2022-10-22T01:19:32.348Z,216.80
2022-10-22T01:20:32.347Z,267.80
2022-10-22T01:21:32.360Z,166.90
2022-10-22T01:22:32.294Z,299.80
2022-10-22T01:23:32.301Z,287.60
2022-10-22T01:24:32.283Z,290.60
2022-10-22T01:25:32.281Z,281.60
2022-10-22T01:26:32.320Z,220.00
2022-10-22T01:27:32.250Z,321.00
2022-10-22T01:28:32.254Z,306.70
2022-10-22T01:29:32.219Z,298.80
2022-10-22T01:30:32.225Z,295.90
2022-10-22T01:31:32.256Z,315.10
2022-10-22T01:32:32.202Z,268.70
2022-10-22T01:33:32.208Z,253.80
2022-10-22T01:34:32.168Z,272.40
2022-10-22T01:36:32.223Z,329.40
2022-10-22T01:37:32.148Z,299.30
2022-10-22T01:38:32.125Z,296.20
2022-10-22T01:39:32.122Z,294.80
2022-10-22T01:40:32.102Z,317.70
2022-10-22T01:41:32.135Z,287.50
2022-10-22T01:42:32.095Z,299.70
2022-10-22T01:43:32.055Z,292.30
2022-10-22T01:44:32.090Z,281.30
2022-10-22T01:45:32.034Z,308.50
2022-10-22T01:46:32.082Z,235.00
2022-10-22T01:47:32.019Z,354.60
2022-10-22T01:48:32.013Z,232.80
2022-10-22T01:49:32.004Z,340.80
2022-10-22T01:50:31.991Z,315.80
2022-10-22T01:51:32.018Z,325.70
2022-10-22T01:52:31.965Z,249.90
2022-10-22T01:53:32.009Z,262.80
2022-10-22T01:54:31.948Z,340.70
2022-10-22T01:55:31.910Z,326.50
2022-10-22T01:56:31.962Z,186.40
2022-10-22T01:57:31.901Z,329.60
2022-10-22T01:58:31.919Z,300.00
2022-10-22T01:59:31.882Z,310.00
2022-10-22T02:00:31.912Z,128.50
2022-10-22T02:01:31.900Z,317.20
2022-10-22T02:02:31.845Z,298.50
2022-10-22T02:03:31.841Z,334.40
2022-10-22T02:04:31.828Z,301.90
2022-10-22T02:05:31.823Z,299.40
2022-10-22T02:06:31.846Z,289.80
2022-10-22T02:07:31.785Z,211.80
2022-10-22T02:08:31.777Z,289.20
2022-10-22T02:09:31.768Z,259.30
2022-10-22T02:10:31.772Z,260.70
2022-10-22T02:11:31.803Z,119.20
2022-10-22T02:12:31.721Z,276.50
2022-10-22T02:13:31.706Z,241.10
2022-10-22T02:14:31.699Z,280.00
2022-10-22T02:15:31.683Z,254.70
2022-10-22T02:16:31.739Z,294.00
2022-10-22T02:17:31.683Z,318.30
2022-10-22T02:18:32.089Z,296.80
2022-10-22T02:19:31.634Z,144.80
2022-10-22T02:20:31.653Z,302.10
2022-10-22T02:21:31.678Z,283.70
2022-10-22T02:22:31.634Z,209.40
2022-10-22T02:23:31.598Z,198.30
2022-10-22T02:24:31.605Z,251.80
2022-10-22T02:25:31.583Z,235.20
2022-10-22T02:26:31.600Z,316.60
2022-10-22T02:27:31.558Z,173.80
2022-10-22T02:28:31.550Z,314.50
2022-10-22T02:29:31.551Z,272.40
2022-10-22T02:30:31.532Z,154.90
2022-10-22T02:31:31.562Z,210.30
2022-10-22T02:32:31.508Z,319.90
2022-10-22T02:33:31.487Z,315.50
2022-10-22T02:34:31.488Z,187.40
2022-10-22T02:35:31.467Z,308.20
2022-10-22T02:36:31.501Z,182.20
2022-10-22T02:37:31.446Z,308.70
2022-10-22T02:38:31.426Z,303.20
2022-10-22T02:39:31.429Z,302.90
2022-10-22T02:40:31.401Z,302.60
2022-10-22T02:41:31.440Z,307.60
2022-10-22T02:42:31.386Z,299.40
2022-10-22T02:43:31.362Z,286.30
2022-10-22T02:44:31.343Z,130.20
2022-10-22T02:45:31.341Z,307.80
2022-10-22T02:46:31.385Z,150.20
2022-10-22T02:47:31.325Z,307.60
2022-10-22T02:48:31.321Z,164.60
2022-10-22T02:49:31.315Z,181.50
2022-10-22T02:50:31.284Z,307.00
2022-10-22T02:51:31.315Z,294.70
2022-10-22T02:52:31.270Z,289.20
2022-10-22T02:53:31.268Z,236.50
2022-10-22T02:54:31.242Z,131.50
2022-10-22T02:55:31.245Z,306.00
2022-10-22T02:56:31.282Z,292.60
2022-10-22T02:57:31.209Z,233.30
2022-10-22T02:58:31.184Z,294.00
2022-10-22T02:59:31.187Z,284.50
2022-10-22T03:00:31.223Z,291.80
2022-10-22T03:01:31.212Z,289.10
2022-10-22T03:02:31.172Z,293.40
2022-10-22T03:03:31.146Z,159.70
2022-10-22T03:04:31.153Z,146.80
2022-10-22T03:05:31.137Z,294.60
2022-10-22T03:06:31.155Z,280.90
2022-10-22T03:07:31.105Z,250.40
2022-10-22T03:08:31.110Z,285.10
2022-10-22T03:09:31.067Z,293.90
2022-10-22T03:10:31.064Z,252.60
2022-10-22T03:11:31.098Z,294.30
2022-10-22T03:12:31.041Z,225.00
2022-10-22T03:13:31.022Z,288.30
2022-10-22T03:14:30.993Z,294.60
2022-10-22T03:15:30.983Z,182.50
2022-10-22T03:16:31.028Z,232.60
2022-10-22T03:17:30.983Z,303.10
2022-10-22T03:18:30.965Z,302.00
2022-10-22T03:19:30.960Z,234.30
2022-10-22T03:20:30.956Z,248.80
2022-10-22T03:21:30.982Z,177.70
2022-10-22T03:22:30.927Z,293.60
2022-10-22T03:23:30.901Z,316.00
2022-10-22T03:24:30.885Z,295.10
2022-10-22T03:25:30.891Z,162.70
2022-10-22T03:26:30.922Z,290.40
2022-10-22T03:27:30.870Z,252.40
2022-10-22T03:28:30.858Z,234.00
2022-10-22T03:29:30.855Z,298.40
2022-10-22T03:30:30.821Z,307.80
2022-10-22T03:31:30.857Z,288.40
2022-10-22T03:32:30.800Z,139.00
2022-10-22T03:33:30.810Z,165.30
2022-10-22T03:34:30.779Z,184.20
2022-10-22T03:35:30.767Z,301.90
2022-10-22T03:36:30.800Z,152.10
2022-10-22T03:37:30.751Z,166.10
2022-10-22T03:38:30.741Z,304.30
2022-10-22T03:39:30.728Z,307.20
2022-10-22T03:40:30.719Z,291.70
2022-10-22T03:41:30.762Z,280.50
2022-10-22T03:42:30.684Z,227.20
2022-10-22T03:43:30.692Z,291.80
2022-10-22T03:44:30.652Z,316.40
2022-10-22T03:45:30.740Z,152.90
2022-10-22T03:46:30.669Z,217.30
2022-10-22T03:47:30.646Z,296.30
2022-10-22T03:48:30.619Z,273.70
2022-10-22T03:49:30.612Z,289.00
2022-10-22T03:50:30.634Z,96.60
2022-10-22T03:51:30.640Z,119.80
2022-10-22T03:52:30.588Z,187.00
2022-10-22T03:53:30.561Z,284.30
2022-10-22T03:54:30.594Z,325.90
2022-10-22T03:55:30.549Z,260.00
2022-10-22T03:56:30.584Z,297.30
2022-10-22T03:57:30.527Z,326.40
2022-10-22T03:58:30.509Z,286.90
2022-10-22T03:59:30.507Z,297.00
2022-10-22T04:00:30.490Z,334.70
2022-10-22T04:01:30.574Z,264.80
2022-10-22T04:02:30.466Z,226.20
2022-10-22T04:03:30.465Z,295.50
2022-10-22T04:04:30.436Z,344.80
2022-10-22T04:05:30.421Z,228.70
2022-10-22T04:06:30.451Z,353.90
2022-10-22T04:07:30.396Z,242.70
2022-10-22T04:08:30.455Z,103.70
2022-10-22T04:09:30.385Z,228.20
2022-10-22T04:10:30.356Z,296.70
2022-10-22T04:11:30.397Z,335.00
2022-10-22T04:12:30.341Z,158.10
2022-10-22T04:13:30.330Z,335.50
2022-10-22T04:14:30.316Z,301.60
2022-10-22T04:15:30.306Z,222.60
2022-10-22T04:16:30.679Z,332.30
2022-10-22T04:17:30.325Z,352.80
2022-10-22T04:18:30.293Z,261.40
2022-10-22T04:19:30.273Z,334.20
2022-10-22T04:20:30.256Z,338.30
2022-10-22T04:21:30.251Z,204.20
2022-10-22T04:22:30.290Z,235.60
2022-10-22T04:23:30.227Z,256.80
2022-10-22T04:24:30.201Z,276.40
2022-10-22T04:25:30.198Z,369.20
2022-10-22T04:26:30.183Z,312.70
2022-10-22T04:27:30.214Z,326.30
2022-10-22T04:28:30.163Z,265.20
2022-10-22T04:29:30.163Z,169.70
2022-10-22T04:30:30.153Z,175.50
2022-10-22T04:31:30.126Z,232.50
2022-10-22T04:32:30.169Z,187.10
2022-10-22T04:33:30.103Z,136.20
2022-10-22T04:34:30.105Z,304.00
2022-10-22T04:35:30.102Z,222.80
2022-10-22T04:36:30.096Z,356.90
2022-10-22T04:37:30.102Z,292.30
2022-10-22T04:38:30.040Z,203.20
2022-10-22T04:39:30.031Z,235.00
2022-10-22T04:40:30.031Z,176.60
2022-10-22T04:41:30.005Z,164.60
2022-10-22T04:42:30.039Z,150.70
2022-10-22T04:43:29.995Z,157.70
2022-10-22T04:44:29.979Z,357.60
2022-10-22T04:45:29.950Z,371.10
2022-10-22T04:46:29.981Z,353.40
2022-10-22T04:47:29.923Z,293.70
2022-10-22T04:48:29.922Z,373.60
2022-10-22T04:49:29.921Z,334.80
2022-10-22T04:50:29.894Z,383.40
2022-10-22T04:51:29.929Z,153.60
2022-10-22T04:52:29.871Z,119.80
2022-10-22T04:53:29.886Z,191.90
2022-10-22T04:54:32.284Z,211.80
2022-10-22T04:56:29.873Z,368.50
2022-10-22T04:57:29.825Z,319.50
2022-10-22T04:58:29.822Z,355.30
2022-10-22T04:59:29.803Z,379.80
2022-10-22T05:00:29.784Z,375.30
2022-10-22T05:01:29.932Z,359.50
2022-10-22T05:02:29.778Z,358.90
2022-10-22T05:03:29.767Z,259.30
2022-10-22T05:04:29.740Z,381.80
2022-10-22T05:05:29.746Z,388.30
2022-10-22T05:06:29.784Z,175.00
2022-10-22T05:07:29.702Z,190.70
2022-10-22T05:08:29.701Z,253.20
2022-10-22T05:09:29.682Z,238.30
2022-10-22T05:10:29.684Z,374.80
2022-10-22T05:11:29.716Z,387.00
2022-10-22T05:12:29.663Z,282.30
2022-10-22T05:13:29.622Z,308.00
2022-10-22T05:14:29.618Z,183.50
2022-10-22T05:15:29.599Z,216.80
2022-10-22T05:16:29.643Z,285.30
2022-10-22T05:17:29.589Z,367.20
2022-10-22T05:18:29.560Z,300.40
2022-10-22T05:19:29.570Z,167.50
2022-10-22T05:20:29.552Z,279.00
2022-10-22T05:21:29.562Z,385.90
2022-10-22T05:22:29.599Z,366.80
2022-10-22T05:23:29.528Z,248.70
2022-10-22T05:24:29.521Z,209.00
2022-10-22T05:25:29.505Z,143.30
2022-10-22T05:26:29.477Z,389.00
2022-10-22T05:27:29.532Z,342.10
2022-10-22T05:28:29.449Z,357.30
2022-10-22T05:29:29.488Z,392.40
2022-10-22T05:30:29.436Z,389.20
2022-10-22T05:31:29.506Z,292.60
2022-10-22T05:32:29.423Z,368.00
2022-10-22T05:33:29.399Z,389.40
2022-10-22T05:34:29.417Z,375.60
2022-10-22T05:35:29.377Z,287.50
2022-10-22T05:36:29.418Z,371.10
2022-10-22T05:37:29.372Z,213.70
2022-10-22T05:38:29.359Z,298.30
2022-10-22T05:39:29.347Z,340.20
2022-10-22T05:40:31.027Z,273.80
2022-10-22T05:41:29.349Z,380.20
2022-10-22T05:42:29.322Z,287.10
2022-10-22T05:43:29.311Z,170.80
2022-10-22T05:44:29.286Z,265.70
2022-10-22T05:45:29.289Z,232.80
2022-10-22T05:46:29.293Z,201.80
2022-10-22T05:47:29.241Z,205.40
2022-10-22T05:48:29.241Z,204.80
2022-10-22T05:49:29.228Z,183.90
2022-10-22T05:50:29.229Z,284.70
2022-10-22T05:51:29.256Z,224.80
2022-10-22T05:52:29.206Z,285.20
2022-10-22T05:53:29.186Z,260.40
2022-10-22T05:54:29.154Z,329.90
2022-10-22T05:55:29.169Z,339.90
2022-10-22T05:56:29.200Z,395.60
2022-10-22T05:57:29.143Z,340.30
2022-10-22T05:58:29.123Z,354.70
2022-10-22T05:59:29.123Z,389.30
2022-10-22T06:00:29.173Z,390.70
2022-10-22T06:01:29.141Z,396.90
2022-10-22T06:02:29.161Z,348.50
2022-10-22T06:03:29.062Z,372.50
2022-10-22T06:04:29.054Z,409.40
2022-10-22T06:05:29.050Z,426.70
2022-10-22T06:06:29.073Z,364.70
2022-10-22T06:07:29.045Z,365.80
2022-10-22T06:08:29.028Z,348.60
2022-10-22T06:09:29.056Z,355.90
2022-10-22T06:10:29.002Z,303.50
2022-10-22T06:11:32.491Z,371.30
2022-10-22T06:12:29.964Z,209.50
2022-10-22T06:13:28.947Z,166.50
2022-10-22T06:14:28.937Z,364.70
2022-10-22T06:15:28.925Z,185.10
2022-10-22T06:16:28.952Z,180.00
2022-10-22T06:17:28.885Z,368.10
2022-10-22T06:18:28.873Z,399.10
2022-10-22T06:19:28.885Z,209.00
2022-10-22T06:20:28.884Z,286.00
2022-10-22T06:21:28.898Z,391.50
2022-10-22T06:22:28.848Z,419.10
2022-10-22T06:23:28.849Z,310.00
2022-10-22T06:24:28.823Z,232.50
2022-10-22T06:25:28.825Z,270.90
2022-10-22T06:26:28.953Z,97.10
2022-10-22T06:27:28.790Z,197.70
2022-10-22T06:28:28.785Z,247.50
2022-10-22T06:29:28.743Z,276.30
2022-10-22T06:30:28.745Z,189.60
2022-10-22T06:31:28.786Z,234.90
2022-10-22T06:32:28.726Z,339.70
2022-10-22T06:33:28.711Z,385.90
2022-10-22T06:34:28.703Z,403.10
2022-10-22T06:35:28.690Z,314.80
2022-10-22T06:36:28.771Z,393.70
2022-10-22T06:37:28.675Z,409.60
2022-10-22T06:38:28.662Z,77.10
2022-10-22T06:39:28.642Z,317.50
2022-10-22T06:40:28.639Z,397.80
2022-10-22T06:41:29.535Z,414.90
2022-10-22T06:42:28.614Z,254.70
2022-10-22T06:43:28.585Z,126.20
2022-10-22T06:44:28.591Z,106.80
2022-10-22T06:45:28.570Z,69.60
2022-10-22T06:46:28.611Z,244.70
2022-10-22T06:47:28.557Z,325.40
2022-10-22T06:48:28.532Z,399.50
2022-10-22T06:49:28.503Z,79.50
2022-10-22T06:50:28.536Z,77.70
2022-10-22T06:51:28.541Z,373.00
2022-10-22T06:52:28.496Z,368.30
2022-10-22T06:53:28.484Z,312.40
2022-10-22T06:54:28.474Z,312.30
2022-10-22T06:55:28.446Z,85.10
2022-10-22T06:56:28.492Z,282.00
2022-10-22T06:57:28.435Z,420.70
2022-10-22T06:58:28.421Z,393.00
2022-10-22T06:59:28.407Z,399.70
2022-10-22T07:00:28.419Z,150.70
2022-10-22T07:01:28.474Z,152.60
2022-10-22T07:02:28.377Z,380.30
2022-10-22T07:03:28.361Z,67.80
2022-10-22T07:04:28.340Z,63.70
2022-10-22T07:05:28.338Z,77.80
2022-10-22T07:06:28.374Z,80.90
2022-10-22T07:07:28.316Z,54.10
2022-10-22T07:08:28.308Z,342.30
2022-10-22T07:09:28.339Z,56.70
2022-10-22T07:10:30.047Z,132.90
2022-10-22T07:11:28.314Z,54.40
2022-10-22T07:12:28.265Z,212.80
2022-10-22T07:13:28.245Z,241.60
2022-10-22T07:14:28.237Z,290.70
2022-10-22T07:15:28.227Z,307.40
2022-10-22T07:16:32.027Z,143.30
2022-10-22T07:17:28.229Z,141.60
2022-10-22T07:18:28.194Z,82.50
2022-10-22T07:19:28.166Z,360.20
2022-10-22T07:20:28.170Z,227.80
2022-10-22T07:21:28.184Z,69.70
2022-10-22T07:22:28.128Z,297.30
2022-10-22T07:23:28.121Z,255.70
2022-10-22T07:24:28.130Z,86.30
2022-10-22T07:25:28.108Z,214.20
2022-10-22T07:26:28.140Z,223.70
2022-10-22T07:27:28.077Z,238.50
2022-10-22T07:28:28.075Z,68.80
2022-10-22T07:29:28.062Z,257.20
2022-10-22T07:30:28.059Z,163.90
2022-10-22T07:31:28.048Z,136.80
2022-10-22T07:32:28.090Z,255.90
2022-10-22T07:33:28.015Z,167.30
2022-10-22T07:34:27.998Z,270.80
2022-10-22T07:35:27.987Z,101.90
2022-10-22T07:36:28.011Z,169.00
2022-10-22T07:37:28.005Z,270.20
2022-10-22T07:38:27.959Z,139.70
2022-10-22T07:39:27.948Z,107.50
2022-10-22T07:40:27.939Z,87.80
2022-10-22T07:41:27.926Z,78.10
2022-10-22T07:43:27.904Z,288.40
2022-10-22T07:44:27.897Z,313.90
2022-10-22T07:45:27.897Z,231.90
2022-10-22T07:46:27.887Z,156.00
2022-10-22T07:47:27.891Z,71.80
2022-10-22T07:48:27.859Z,286.40
2022-10-22T07:49:27.834Z,271.40
2022-10-22T07:50:27.837Z,160.90
2022-10-22T07:51:27.814Z,197.10
2022-10-22T07:52:27.847Z,95.30
2022-10-22T07:53:27.775Z,198.00
2022-10-22T07:54:27.772Z,60.00
2022-10-22T07:55:27.775Z,228.50
2022-10-22T07:56:27.760Z,84.70
2022-10-22T07:57:27.806Z,121.40
2022-10-22T07:58:27.735Z,239.10
2022-10-22T07:59:27.719Z,396.80
2022-10-22T08:00:27.707Z,142.50
2022-10-22T08:01:27.757Z,59.20
2022-10-22T08:02:27.733Z,116.30
2022-10-22T08:03:27.689Z,106.50
2022-10-22T08:04:27.664Z,245.90
2022-10-22T08:05:27.655Z,206.30
2022-10-22T08:06:27.692Z,69.20
2022-10-22T08:07:27.649Z,305.20
2022-10-22T08:08:30.461Z,287.20
2022-10-22T08:09:27.617Z,146.10
2022-10-22T08:10:27.589Z,64.00
2022-10-22T08:11:27.632Z,314.10
2022-10-22T08:12:27.581Z,80.30
2022-10-22T08:13:27.555Z,71.60
2022-10-22T08:14:27.563Z,61.30
2022-10-22T08:15:27.572Z,161.30
2022-10-22T08:16:27.578Z,311.70
2022-10-22T08:17:27.513Z,321.00
2022-10-22T08:18:27.497Z,271.30
2022-10-22T08:19:27.493Z,124.20
2022-10-22T08:20:27.483Z,47.70
2022-10-22T08:21:27.504Z,151.60
2022-10-22T08:22:27.445Z,274.00
2022-10-22T08:23:28.632Z,295.70
2022-10-22T08:24:27.418Z,209.10
2022-10-22T08:25:27.405Z,33.50
2022-10-22T08:26:27.445Z,30.80
2022-10-22T08:27:27.389Z,30.30
2022-10-22T08:28:27.394Z,71.50
2022-10-22T08:29:27.364Z,48.70
2022-10-22T08:30:27.357Z,29.40
2022-10-22T08:31:27.334Z,29.20
2022-10-22T08:33:27.346Z,32.20
2022-10-22T08:34:27.315Z,51.70
2022-10-22T08:35:27.285Z,151.30
2022-10-22T08:36:27.301Z,160.80
2022-10-22T08:37:27.331Z,173.90
2022-10-22T08:38:27.275Z,244.90
2022-10-22T08:39:27.253Z,76.60
2022-10-22T08:40:27.254Z,28.50
2022-10-22T08:41:27.224Z,38.10
2022-10-22T08:42:27.270Z,26.50
2022-10-22T08:43:27.261Z,203.50
2022-10-22T08:44:27.218Z,152.90
2022-10-22T08:45:27.193Z,28.00
2022-10-22T08:46:27.185Z,48.90
2022-10-22T08:47:27.212Z,166.60
2022-10-22T08:48:27.156Z,212.30
2022-10-22T08:49:27.155Z,270.80
2022-10-22T08:50:27.133Z,218.50
2022-10-22T08:51:27.115Z,158.00
2022-10-22T08:52:27.144Z,36.60
2022-10-22T08:53:27.118Z,42.10
2022-10-22T08:54:27.078Z,94.00
2022-10-22T08:55:27.050Z,124.00
2022-10-22T08:56:27.114Z,124.10
2022-10-22T08:57:27.082Z,142.80
2022-10-22T08:58:27.033Z,147.70
2022-10-22T08:59:27.035Z,206.30
2022-10-22T09:00:27.002Z,150.30
2022-10-22T09:01:27.014Z,146.80
2022-10-22T09:02:27.041Z,176.20
2022-10-22T09:03:26.998Z,237.90
2022-10-22T09:04:26.972Z,181.70
2022-10-22T09:05:26.956Z,92.70
2022-10-22T09:06:26.957Z,120.20
2022-10-22T09:07:26.981Z,212.90
2022-10-22T09:08:26.934Z,178.80
2022-10-22T09:09:26.914Z,208.70
2022-10-22T09:10:26.919Z,79.70
2022-10-22T09:11:26.897Z,156.10
2022-10-22T09:12:26.933Z,151.90
2022-10-22T09:13:26.891Z,66.60
2022-10-22T09:14:26.869Z,161.70
2022-10-22T09:15:26.853Z,147.20
2022-10-22T09:16:26.838Z,88.80
2022-10-22T09:17:26.866Z,45.20
2022-10-22T09:18:26.813Z,122.50
2022-10-22T09:19:26.813Z,94.70
2022-10-22T09:20:26.793Z,40.10
2022-10-22T09:21:26.794Z,71.30
2022-10-22T09:22:26.846Z,140.70
2022-10-22T09:23:26.752Z,70.20
2022-10-22T09:24:28.470Z,45.10
2022-10-22T09:25:26.734Z,94.90
2022-10-22T09:26:26.737Z,131.60
2022-10-22T09:27:26.758Z,107.90
2022-10-22T09:28:26.690Z,84.60
2022-10-22T09:29:26.698Z,107.70
2022-10-22T09:30:26.683Z,70.20
2022-10-22T09:31:26.682Z,69.90
2022-10-22T09:32:26.685Z,119.30
2022-10-22T09:33:26.644Z,123.30
2022-10-22T09:34:26.633Z,73.20
2022-10-22T09:35:26.650Z,41.40
2022-10-22T09:36:26.616Z,79.10
2022-10-22T09:37:26.647Z,126.70
2022-10-22T09:38:26.573Z,150.30
2022-10-22T09:39:26.601Z,91.40
2022-10-22T09:40:26.563Z,45.10
2022-10-22T09:41:26.544Z,57.00
2022-10-22T09:42:26.583Z,104.00
2022-10-22T09:43:26.533Z,86.40
2022-10-22T09:44:26.504Z,44.00
2022-10-22T09:45:26.494Z,90.60
2022-10-22T09:46:26.484Z,121.70
2022-10-22T09:47:37.331Z,68.60
2022-10-22T09:48:27.479Z,45.30
2022-10-22T09:49:26.458Z,83.40
2022-10-22T09:50:26.453Z,88.50
2022-10-22T09:51:26.459Z,121.00
2022-10-22T09:52:26.451Z,46.90
2022-10-22T09:53:26.391Z,53.50
2022-10-22T09:54:26.381Z,76.40
2022-10-22T09:55:26.373Z,116.60
2022-10-22T09:56:26.370Z,106.30
2022-10-22T09:57:26.399Z,36.90
2022-10-22T09:58:26.359Z,103.70
2022-10-22T09:59:26.342Z,124.40
2022-10-22T10:00:26.314Z,36.00
2022-10-22T10:01:26.317Z,115.00
2022-10-22T10:02:42.505Z,120.20
2022-10-22T10:03:27.350Z,66.40
2022-10-22T10:04:26.302Z,85.40
2022-10-22T10:05:26.290Z,144.20
2022-10-22T10:06:26.255Z,86.70
2022-10-22T10:07:26.292Z,91.30
2022-10-22T10:08:26.232Z,160.60
2022-10-22T10:09:26.236Z,176.30
2022-10-22T10:10:26.220Z,121.70
2022-10-22T10:11:29.090Z,71.60
2022-10-22T10:12:26.231Z,181.80
2022-10-22T10:13:26.174Z,116.00
2022-10-22T10:14:26.179Z,63.10
2022-10-22T10:15:26.161Z,104.90
2022-10-22T10:16:26.184Z,84.50
2022-10-22T10:17:26.194Z,91.30
2022-10-22T10:18:26.111Z,76.70
2022-10-22T10:19:26.116Z,51.80
2022-10-22T10:20:26.096Z,69.20
2022-10-22T10:21:26.121Z,54.90
2022-10-22T10:22:26.123Z,74.90
2022-10-22T10:23:26.050Z,74.20
2022-10-22T10:24:26.049Z,298.50
2022-10-22T10:25:26.035Z,1254.40
2022-10-22T10:26:26.036Z,1187.40
2022-10-22T10:27:26.071Z,596.40
2022-10-22T10:28:26.015Z,181.70
2022-10-22T10:29:26.017Z,103.30
2022-10-22T10:30:25.989Z,523.70
2022-10-22T10:31:25.980Z,829.00
2022-10-22T10:32:26.000Z,674.90
2022-10-22T10:33:25.931Z,733.60
2022-10-22T10:34:25.941Z,745.10
2022-10-22T10:35:25.941Z,297.00
2022-10-22T10:36:25.907Z,530.30
2022-10-22T10:37:25.955Z,889.80
2022-10-22T10:38:28.781Z,1599.20
2022-10-22T10:39:25.875Z,1635.80
2022-10-22T10:40:25.876Z,1530.50
2022-10-22T10:41:25.859Z,1999.90
2022-10-22T10:42:25.881Z,201.00
2022-10-22T10:43:25.837Z,197.50
2022-10-22T10:44:25.829Z,299.60
2022-10-22T10:45:25.817Z,1999.90
2022-10-22T10:46:25.791Z,1999.90
2022-10-22T10:47:25.830Z,1999.90
2022-10-22T10:48:25.773Z,1999.90
2022-10-22T10:49:25.792Z,1999.90
2022-10-22T10:50:25.728Z,1999.90
2022-10-22T10:51:25.752Z,1999.90
2022-10-22T10:52:25.767Z,1999.90
2022-10-22T10:53:25.708Z,1999.90
2022-10-22T10:54:25.721Z,1999.90
2022-10-22T10:55:25.685Z,1999.90
2022-10-22T10:56:25.729Z,1999.90
2022-10-22T10:57:25.671Z,1999.90
2022-10-22T10:58:25.677Z,1999.90
2022-10-22T10:59:25.659Z,1999.90
2022-10-22T11:00:25.635Z,1999.90
2022-10-22T11:01:25.729Z,1999.90
2022-10-22T11:02:25.616Z,1999.90
2022-10-22T11:03:25.630Z,1999.90
2022-10-22T11:04:25.602Z,1999.90
2022-10-22T11:05:25.581Z,1999.90
2022-10-22T11:06:25.843Z,1999.90
2022-10-22T11:07:34.357Z,1999.90
2022-10-22T11:08:26.536Z,1999.90
2022-10-22T11:09:25.531Z,1999.90
2022-10-22T11:10:25.524Z,1999.90
2022-10-22T11:11:25.550Z,1999.90
2022-10-22T11:12:25.517Z,1999.90
2022-10-22T11:13:25.512Z,1999.90
2022-10-22T11:14:27.855Z,1999.90
2022-10-22T11:15:25.477Z,1999.90
2022-10-22T11:16:25.517Z,1999.90
2022-10-22T11:17:25.436Z,1999.90
2022-10-22T11:18:25.435Z,1999.90
2022-10-22T11:19:46.062Z,1999.90
2022-10-22T11:20:26.419Z,1999.90
2022-10-22T11:21:25.453Z,1999.90
2022-10-22T11:22:26.894Z,1999.90
2022-10-22T11:23:25.764Z,1999.90
2022-10-22T11:24:25.341Z,1999.90
2022-10-22T11:25:25.332Z,1999.90
2022-10-22T11:26:25.369Z,1999.90
2022-10-22T11:27:25.346Z,1999.90
2022-10-22T11:28:25.320Z,1999.90
2022-10-22T11:29:27.207Z,1999.90
2022-10-22T11:30:25.291Z,1999.90
2022-10-22T11:31:25.333Z,1999.90
2022-10-22T11:32:25.268Z,1999.90
2022-10-22T11:33:25.252Z,1999.90
2022-10-22T11:34:34.155Z,1999.90
2022-10-22T11:35:26.246Z,1999.90
2022-10-22T11:36:25.306Z,1999.90
2022-10-22T11:37:25.213Z,1999.90
2022-10-22T11:38:25.219Z,1999.90
2022-10-22T11:39:25.191Z,1999.90
2022-10-22T11:40:25.237Z,1999.90
2022-10-22T11:41:25.176Z,1999.90
2022-10-22T11:42:25.179Z,1999.90
2022-10-22T11:43:25.166Z,1999.90
2022-10-22T11:44:25.186Z,1999.90
2022-10-22T11:45:25.142Z,1999.90
2022-10-22T11:46:25.168Z,1999.90
2022-10-22T11:47:25.115Z,1999.90
2022-10-22T11:48:25.093Z,1999.90
2022-10-22T11:49:25.080Z,1999.90
2022-10-22T11:50:25.073Z,1999.90
2022-10-22T11:51:25.110Z,1999.90
2022-10-22T11:52:25.050Z,1999.90
2022-10-22T11:53:25.016Z,1999.90
2022-10-22T11:54:25.010Z,1999.90
2022-10-22T11:55:25.004Z,1999.90
2022-10-22T11:56:25.028Z,1999.90
2022-10-22T11:57:24.997Z,1999.90
2022-10-22T11:58:24.973Z,1999.90
2022-10-22T11:59:24.978Z,1999.90
2022-10-22T12:00:24.954Z,1999.90
2022-10-22T12:01:25.087Z,1999.90
2022-10-22T12:02:24.936Z,1999.90
2022-10-22T12:03:24.919Z,1999.90
2022-10-22T12:04:24.948Z,1999.90
2022-10-22T12:05:24.898Z,1999.90
2022-10-22T12:06:24.937Z,1999.90
2022-10-22T12:07:24.863Z,1999.90
2022-10-22T12:08:24.858Z,1999.90
2022-10-22T12:09:24.862Z,1999.90
2022-10-22T12:10:24.825Z,1999.90
2022-10-22T12:11:24.865Z,1999.90
2022-10-22T12:12:24.821Z,1999.90
2022-10-22T12:13:24.816Z,1999.90
2022-10-22T12:14:24.795Z,1999.90
2022-10-22T12:15:24.774Z,1999.90
2022-10-22T12:16:32.374Z,1999.90
2022-10-22T12:17:25.765Z,1999.90
2022-10-22T12:18:24.755Z,1999.90
2022-10-22T12:19:24.740Z,1999.90
2022-10-22T12:20:24.731Z,1999.90
2022-10-22T12:21:24.752Z,1999.90
2022-10-22T12:22:24.693Z,1999.90
2022-10-22T12:23:24.700Z,1999.90
2022-10-22T12:24:24.667Z,1999.90
2022-10-22T12:25:24.666Z,1999.90
2022-10-22T12:26:24.724Z,1999.90
2022-10-22T12:27:24.636Z,1999.90
2022-10-22T12:28:24.633Z,1999.90
2022-10-22T12:29:24.652Z,1999.90
2022-10-22T12:30:24.593Z,1999.90
2022-10-22T12:31:24.651Z,1999.90